Detall de PIREP

Printer-friendly versionPDF version

[2013/02/23 18:21:00]
Flight IATA:CT1004
Pilot Number:042
Company ICAO:CAT
Aircraft Type:C750/F
PAX:2
Departing Airport: GMAD
Destination Airport: LEBL
Alternate Airport:LEPA
Online: VATSIM
Route:MAK UG850 BERUM UN860 VLC UM985 SOPET UN608 MATEX
Flight Level:F320
No Slew and time accel
No pause
Crash detect
Detect pilot in Cockpit between each 30 and 45 minutes
18:21 Zero fuel Weight: 22920 Lbs, Fuel Weight: 12985 Lbs
18:21 VATSIM:GMAD 231800Z 27015KT CAVOK 20/06 Q1014 NOSIG
18:21 VATSIM:LEBL 231800Z 27008KT 240V300 9999 FEW022 08/M03 Q1005 NOSIG
18:22 VOICE CATALONIAN/MWC 2013 BARCELONA CHARTER
18:36 Parking Brakes off
18:46 Take-off
18:46 Take off Weight: 35719 Lbs
18:46 Wind: 276º @ 010 Knots Heading: 271º
18:46 POS N30º 19´ 21´´ W009º 24´ 50´´
18:46 Gear Up: 158 Knots
18:46 Flaps:3 at 158 Knots
18:47 Flaps:2 at 171 Knots
18:47 Flaps:0 at 186 Knots
18:56 TOC
18:56 Fuel Weight: 12273 Lb
19:22 TOD
19:22 Fuel Weight: 11494 Lb
19:24 TOC
19:24 Fuel Weight: 11396 Lb
20:01 Wind:295º@072 Knots Heading: 019º Ground Speed: 496 Knots Altitude 31942 ft
20:16 Wind:298º@057 Knots Heading: 021º Ground Speed: 496 Knots Altitude 32007 ft
20:31 Wind:317º@058 Knots Heading: 042º Ground Speed: 499 Knots Altitude 31755 ft
20:31 TOD
20:31 Fuel Weight: 9180 Lb
20:46 Wind:297º@006 Knots Heading: 136º Ground Speed: 191 Knots Altitude 3982 ft
20:48 Flaps:2 at 193 Knots
20:49 Gear Down: 205 Knots
20:49 Flaps:3 at 205 Knots
20:49 Flaps:5 at 182 Knots
20:52 TouchDown:Rate -587 ft/min Speed: 125 Knots
20:52 VATSIM:LEBL 232030Z 34009KT 310V010 9999 FEW020 05/M04 Q1009 NOSIG
20:52 Land
20:52 Wind:212º@004 Knots
20:52 Heading: 241º
20:52 Flight Duration: 02:06
20:52 Landing Weight: 31896 Lbs
20:52 POS N41º 17´ 57´´ E002º 05´ 05´´
20:54Parking brakes on
20:54 Block to Block Duration: 02:18
20:54 Final Fuel: 8955 Lbls
20:54 Spent Fuel: 4029 Lbls
20:54 Flight Length: 451 NM
20:54 TOD Land Length: 101 NM

Exportar CSV

Powered by Drupal - Modified by Danger4k